Latest Weather Observations for Keith West

IDS60801

Issued at 11:01 am CST Thursday 28 May 2015 (issued every 30 minutes, with the page automatically refreshed every 10 minutes)

About weather observations | Map of weather stations | Latest weather observations for SA | Other Formats
Station Details ID: 025557 Name: MUNKORA Lat: -36.11 Lon: 140.33 Height: 27.0 m
Data from the previous 72 hours. | See also: Recent months for locations in South Australia
Date/Time
CST
Temp
°C
App
Temp
°C
Dew
Point
Rel
Hum
%
Delta-T
°C
Wind Press
QNH
hPa
Press
MSL
hPa
Rain
since 9 am
mm
Dir
 
Spd
km/h
Gust
km/h
Spd
kts
Gust
kts
28/11:00am 17.2 11.9 9.9 62 3.8 WNW 28 37 15 20 1017.6 1017.6 0.0
28/10:30am 16.6 12.9 10.0 65 3.5 WNW 20 26 11 14 1017.7 1017.7 0.0
28/10:00am 15.0 11.3 9.4 69 2.9 WNW 19 26 10 14 1018.0 1018.0 0.0
28/09:30am 14.9 10.9 9.1 68 3.0 WNW 20 24 11 13 1018.0 1018.0 0.0
28/09:00am 14.6 10.6 9.2 70 2.8 WNW 20 30 11 16 1018.0 1018.0 0.0
28/08:30am 13.7 10.6 9.0 73 2.4 NW 15 20 8 11 1017.8 1017.8 0.0
28/08:00am 12.6 8.6 8.3 75 2.1 NNW 19 24 10 13 1017.7 1017.7 0.0
28/07:30am 11.4 7.6 7.7 78 1.8 NW 17 20 9 11 1017.6 1017.6 0.0
28/07:00am 11.7 7.9 7.6 76 2.0 NW 17 20 9 11 1017.3 1017.3 0.0
28/06:30am 12.1 8.0 7.8 75 2.1 NNW 19 24 10 13 1016.9 1016.9 0.0
28/06:00am 11.7 8.3 7.6 76 2.0 NNW 15 19 8 10 1016.6 1016.6 0.0
28/05:30am 11.3 8.6 7.2 76 2.0 NNW 11 13 6 7 1016.6 1016.6 0.0
28/05:00am 11.1 8.3 6.8 75 2.0 NNW 11 13 6 7 1016.8 1016.8 0.0
28/04:30am 11.9 8.8 7.2 73 2.3 NNW 13 15 7 8 1016.9 1016.9 0.0
28/04:00am 11.8 9.0 7.1 73 2.3 NW 11 13 6 7 1016.7 1016.7 0.0
28/03:30am 12.0 9.2 7.1 72 2.4 NW 11 13 6 7 1016.8 1016.8 0.0
28/03:00am 12.6 9.1 7.3 70 2.6 NW 15 19 8 10 1016.8 1016.8 0.0
28/02:30am 13.4 9.3 8.0 70 2.7 NNW 19 24 10 13 1017.1 1017.1 0.0
28/02:00am 13.7 10.1 8.5 71 2.6 NNW 17 20 9 11 1017.2 1017.2 0.0
28/01:30am 12.6 9.8 8.5 76 2.0 NNW 13 15 7 8 1017.0 1017.0 0.0
28/01:00am 12.4 9.5 8.3 76 2.0 NNW 13 15 7 8 1017.0 1017.0 0.0
28/12:30am 13.4 10.6 8.5 72 2.4 NNW 13 15 7 8 1017.3 1017.3 0.0
28/12:00am 12.5 10.0 8.0 74 2.2 NNW 11 13 6 7 1017.6 1017.6 0.0
 
Date/Time
CST
Temp
°C
App
Temp
°C
Dew
Point
Rel
Hum
%
Delta-T
°C
Wind Press
QNH
hPa
Press
MSL
hPa
Rain
since 9 am
mm
Dir
 
Spd
km/h
Gust
km/h
Spd
kts
Gust
kts
27/11:30pm 12.6 10.4 7.9 73 2.3 NW 9 11 5 6 1017.8 1017.8 0.0
27/11:00pm 13.3 10.8 8.2 71 2.5 NW 11 11 6 6 1018.1 1018.1 0.0
27/10:30pm 13.4 10.9 8.3 71 2.5 NNW 11 13 6 7 1018.1 1018.1 0.0
27/10:00pm 13.6 10.7 8.2 70 2.7 NW 13 15 7 8 1018.4 1018.4 0.0
27/09:30pm 13.7 10.4 7.9 68 2.9 NNW 15 17 8 9 1018.4 1018.4 0.0
27/09:00pm 12.5 10.0 8.0 74 2.2 NNW 11 13 6 7 1018.3 1018.3 0.0
27/08:30pm 12.9 11.3 8.0 72 2.4 NW 6 6 3 3 1018.5 1018.5 0.0
27/08:00pm 12.6 11.0 7.9 73 2.3 NNW 6 6 3 3 1018.5 1018.5 0.0
27/07:30pm 12.2 10.9 7.7 74 2.2 NNW 4 4 2 2 1018.4 1018.4 0.0
27/07:00pm 12.8 11.0 8.1 73 2.3 N 7 7 4 4 1018.3 1018.3 0.0
27/06:30pm 13.2 11.4 7.9 70 2.6 NW 7 7 4 4 1018.2 1018.2 0.0
27/06:00pm 13.9 11.9 8.5 70 2.7 WNW 9 11 5 6 1018.1 1018.1 0.0
27/05:30pm 15.1 12.9 9.2 68 3.0 WNW 11 15 6 8 1018.0 1018.0 0.0
27/05:00pm 17.4 15.2 10.8 65 3.5 WNW 13 15 7 8 1017.9 1017.9 0.0
27/04:30pm 18.6 16.7 10.4 59 4.4 W 11 17 6 9 1017.9 1017.9 0.0
27/04:00pm 19.1 16.7 10.1 56 4.8 W 13 19 7 10 1017.8 1017.8 0.0
27/03:30pm 19.4 16.8 10.7 57 4.7 WSW 15 19 8 10 1017.8 1017.8 0.0
27/03:00pm 20.1 17.1 9.4 50 5.7 W 15 20 8 11 1017.9 1017.9 0.0
27/02:30pm 19.8 17.3 9.7 52 5.4 W 13 19 7 10 1017.9 1017.9 0.0
27/02:00pm 20.0 16.4 9.9 52 5.4 WSW 19 24 10 13 1017.9 1017.9 0.0
27/01:30pm 19.7 15.6 10.1 54 5.1 WSW 22 32 12 17 1018.0 1018.0 0.0
27/01:00pm 20.0 16.8 10.1 53 5.3 W 17 22 9 12 1018.4 1018.4 0.0
27/12:30pm 19.4 15.8 9.9 54 5.1 W 19 22 10 12 1018.7 1018.7 0.0
27/12:00pm 18.8 15.0 9.8 56 4.8 WNW 20 26 11 14 1019.0 1019.0 0.0
27/11:30am 18.5 14.3 9.8 57 4.6 WNW 22 28 12 15 1019.5 1019.5 0.0
27/11:00am 18.2 13.8 10.3 60 4.2 WNW 24 32 13 17 1019.8 1019.8 0.0
27/10:30am 17.9 13.2 10.8 63 3.8 WNW 26 32 14 17 1019.9 1019.9 0.0
27/10:00am 17.0 12.5 9.9 63 3.7 WNW 24 32 13 17 1020.1 1020.1 0.0
27/09:30am 16.1 12.5 10.0 67 3.2 WNW 19 26 10 14 1020.1 1020.1 0.0
27/09:00am 15.1 12.2 9.7 70 2.8 WNW 15 19 8 10 1020.1 1020.1 0.0
27/08:30am 13.7 10.4 9.6 76 2.1 NW 17 20 9 11 1019.8 1019.8 0.0
27/08:00am 12.5 9.5 9.1 80 1.7 NNW 15 19 8 10 1019.5 1019.5 0.0
27/07:30am 11.1 7.9 8.3 83 1.4 NNW 15 17 8 9 1019.5 1019.5 0.0
27/07:00am 10.9 7.6 8.1 83 1.4 NNW 15 19 8 10 1019.2 1019.2 0.0
27/06:30am 10.6 7.7 8.0 84 1.3 NNW 13 15 7 8 1019.0 1019.0 0.0
27/06:00am 9.4 6.7 7.5 88 0.9 NW 11 13 6 7 1018.9 1018.9 0.0
27/05:30am 9.9 7.3 7.8 87 1.0 NW 11 13 6 7 1018.9 1018.9 0.0
27/05:00am 9.9 7.3 7.8 87 1.0 NW 11 13 6 7 1018.9 1018.9 0.0
27/04:30am 10.5 8.3 7.9 84 1.3 NNW 9 11 5 6 1018.9 1018.9 0.0
27/04:00am 11.4 8.6 8.6 83 1.4 NW 13 15 7 8 1018.8 1018.8 0.0
27/03:30am 13.1 11.4 9.7 80 1.7 NW 9 11 5 6 1018.9 1018.9 0.0
27/03:00am 13.5 11.9 10.1 80 1.8 NW 9 11 5 6 1019.2 1019.2 0.0
27/02:30am 13.7 10.9 10.1 79 1.9 NNW 15 17 8 9 1019.3 1019.3 0.0
27/02:00am 14.1 11.6 9.7 75 2.3 NW 13 17 7 9 1019.7 1019.7 0.0
27/01:30am 13.4 11.2 9.5 77 2.0 NW 11 13 6 7 1019.6 1019.6 0.0
27/01:00am 14.5 11.5 9.3 71 2.7 NW 15 17 8 9 1019.7 1019.7 0.0
27/12:30am 14.8 11.4 9.2 69 2.9 NNW 17 19 9 10 1019.8 1019.8 0.0
27/12:00am 14.7 11.7 9.1 69 2.9 NNW 15 20 8 11 1020.2 1020.2 0.0
 
Date/Time
CST
Temp
°C
App
Temp
°C
Dew
Point
Rel
Hum
%
Delta-T
°C
Wind Press
QNH
hPa
Press
MSL
hPa
Rain
since 9 am
mm
Dir
 
Spd
km/h
Gust
km/h
Spd
kts
Gust
kts
26/11:30pm 14.7 10.7 9.1 69 2.9 N 20 24 11 13 1020.4 1020.4 0.0
26/11:00pm 14.2 11.5 9.0 71 2.6 N 13 15 7 8 1020.6 1020.6 0.0
26/10:30pm 14.2 11.9 9.0 71 2.6 N 11 13 6 7 1020.9 1020.9 0.0
26/10:00pm 14.5 12.2 9.1 70 2.8 N 11 15 6 8 1021.1 1021.1 0.0
26/09:30pm 14.1 12.2 8.9 71 2.6 N 9 11 5 6 1021.0 1021.0 0.0
26/09:00pm 13.8 12.2 8.6 71 2.6 N 7 9 4 5 1021.2 1021.2 0.0
26/08:30pm 14.0 12.3 8.4 69 2.8 N 7 9 4 5 1021.4 1021.4 0.0
26/08:00pm 14.9 12.9 8.8 67 3.1 N 9 11 5 6 1021.3 1021.3 0.0
26/07:30pm 15.6 13.7 9.1 65 3.3 N 9 9 5 5 1021.3 1021.3 0.0
26/07:00pm 15.8 14.4 9.5 66 3.3 N 7 9 4 5 1021.3 1021.3 0.0
26/06:30pm 15.7 14.8 9.4 66 3.2 N 4 6 2 3 1021.2 1021.2 0.0
26/06:00pm 15.9 15.0 9.3 65 3.4 N 4 6 2 3 1021.2 1021.2 0.0
26/05:30pm 16.4 15.8 9.1 62 3.8 N 2 4 1 2 1021.2 1021.2 0.0
26/05:00pm 17.1 16.6 9.3 60 4.1 N 2 4 1 2 1021.1 1021.1 0.0
26/04:30pm 18.1 16.7 8.9 55 4.8 NNW 6 6 3 3 1021.1 1021.1 0.0
26/04:00pm 18.9 16.4 8.0 49 5.6 NNW 11 13 6 7 1021.1 1021.1 0.0
26/03:30pm 20.1 16.4 7.8 45 6.3 NNW 17 22 9 12 1021.2 1021.2 0.0
26/03:00pm 19.9 16.9 7.9 46 6.2 NW 13 15 7 8 1021.5 1021.5 0.0
26/02:30pm 20.3 16.9 7.7 44 6.5 NW 15 19 8 10 1021.7 1021.7 0.0
26/02:00pm 21.0 16.2 7.3 41 7.0 NW 22 28 12 15 1022.2 1022.2 0.0
26/01:30pm 20.5 16.3 7.5 43 6.7 NW 19 24 10 13 1022.7 1022.7 0.0
26/01:00pm 19.9 17.2 7.3 44 6.4 NNE 11 17 6 9 1023.1 1023.1 0.0
26/12:30pm 19.7 17.0 7.4 45 6.2 N 11 17 6 9 1023.6 1023.6 0.0
26/12:00pm 19.0 16.3 7.4 47 5.9 N 11 17 6 9 1024.0 1024.0 0.0
26/11:30am 19.5 17.0 8.2 48 5.8 N 11 20 6 11 1024.6 1024.6 0.0
26/11:00am 18.0 15.1 8.0 52 5.1 N 13 17 7 9 1025.2 1025.2 0.0
26/10:30am 16.6 14.1 8.1 57 4.3 NNE 11 15 6 8 1025.6 1025.6 0.0
26/10:00am 14.9 12.7 7.7 62 3.6 NNE 9 13 5 7 1026.1 1026.1 0.0
26/09:30am 12.3 9.9 7.0 70 2.5 NE 9 11 5 6 1026.3 1026.3 0.0
26/09:00am 12.2 10.0 6.3 67 2.8 NNE 7 9 4 5 1026.7 1026.7 0.0
26/08:30am 11.7 9.2 6.6 71 2.4 NNE 9 13 5 7 1026.8 1026.8 0.0
26/08:00am 11.0 7.6 6.0 71 2.3 NNE 13 17 7 9 1026.7 1026.7 0.0
26/07:30am 10.3 7.7 6.1 75 1.9 ENE 9 13 5 7 1026.5 1026.5 0.0
26/07:00am 10.2 7.9 5.8 74 2.0 NE 7 9 4 5 1026.7 1026.7 0.0
26/06:30am 10.2 7.5 5.8 74 2.0 NNE 9 11 5 6 1026.6 1026.6 0.0
26/06:00am 10.1 7.8 5.7 74 2.0 NE 7 9 4 5 1026.5 1026.5 0.0
26/05:30am 10.4 7.7 5.4 71 2.3 NNE 9 13 5 7 1026.5 1026.5 0.0
26/05:00am 10.3 7.5 5.1 70 2.4 NNE 9 13 5 7 1026.5 1026.5 0.0
26/04:30am 10.4 7.2 5.0 69 2.4 NNE 11 15 6 8 1026.4 1026.4 0.0
26/04:00am 10.4 6.8 4.8 68 2.5 NNE 13 19 7 10 1026.4 1026.4 0.0
26/03:30am 10.1 6.0 4.5 68 2.5 NNE 15 19 8 10 1026.7 1026.7 0.0
26/03:00am 10.0 6.3 4.2 67 2.6 NNE 13 17 7 9 1026.8 1026.8 0.0
26/02:30am 10.3 6.1 4.0 65 2.8 NNE 15 20 8 11 1027.0 1027.0 0.0
26/02:00am 10.0 6.2 4.0 66 2.6 NNE 13 17 7 9 1027.3 1027.4 0.0
26/01:30am 9.9 6.1 3.9 66 2.6 NNE 13 17 7 9 1027.3 1027.4 0.0
26/01:00am 10.3 6.1 3.8 64 2.9 NNE 15 19 8 10 1027.5 1027.6 0.0
26/12:30am 10.1 6.0 4.5 68 2.5 NNE 15 17 8 9 1027.7 1027.8 0.0
26/12:00am 9.8 6.1 4.6 70 2.3 NNE 13 15 7 8 1028.0 1028.1 0.0
 
Date/Time
CST
Temp
°C
App
Temp
°C
Dew
Point
Rel
Hum
%
Delta-T
°C
Wind Press
QNH
hPa
Press
MSL
hPa
Rain
since 9 am
mm
Dir
 
Spd
km/h
Gust
km/h
Spd
kts
Gust
kts
25/11:30pm 10.2 6.6 4.8 69 2.4 NNE 13 17 7 9 1028.1 1028.2 0.0
25/11:00pm 10.0 6.4 5.2 72 2.2 NNE 13 15 7 8 1028.3 1028.4 0.0
25/10:30pm 10.5 7.0 5.3 70 2.4 NNE 13 15 7 8 1028.2 1028.3 0.0
25/10:00pm 11.1 7.6 5.6 69 2.5 NNE 13 17 7 9 1028.3 1028.4 0.0
25/09:30pm 11.6 7.8 5.9 68 2.6 NNE 15 19 8 10 1028.2 1028.3 0.0
25/09:00pm 11.9 8.2 6.4 69 2.6 NE 15 20 8 11 1028.1 1028.2 0.0
25/08:30pm 12.2 8.6 6.7 69 2.6 NE 15 19 8 10 1028.1 1028.2 0.0
25/08:00pm 12.7 9.0 6.5 66 3.0 NE 15 17 8 9 1028.2 1028.3 0.0
25/07:30pm 12.2 8.6 6.9 70 2.5 NE 15 20 8 11 1028.0 1028.1 0.0
25/07:00pm 10.4 8.1 5.8 73 2.1 NE 7 9 4 5 1028.1 1028.2 0.0
25/06:30pm 11.8 9.8 6.3 69 2.6 NE 6 9 3 5 1028.0 1028.1 0.0
25/06:00pm 12.0 10.4 6.5 69 2.6 NE 4 4 2 2 1027.7 1027.8 0.0
25/05:30pm 14.2 12.2 6.3 59 3.8 NE 6 6 3 3 1027.3 1027.4 0.0
25/05:00pm 16.2 14.2 6.3 52 4.8 NE 6 7 3 4 1027.1 1027.1 0.0
25/04:30pm 18.3 16.6 5.8 44 6.1 N 4 6 2 3 1026.9 1026.9 0.0
25/04:00pm 18.8 16.6 5.3 41 6.6 N 6 9 3 5 1027.0 1027.0 0.0
25/03:30pm 19.2 17.5 6.0 42 6.5 NNE 4 9 2 5 1026.7 1026.7 0.0
25/03:00pm 19.1 16.7 5.2 40 6.7 NNW 7 13 4 7 1026.8 1026.8 0.0
25/02:30pm 18.9 17.4 5.0 40 6.7 NNE 2 7 1 4 1026.8 1026.8 0.0
25/02:00pm 18.9 16.8 6.7 45 6.1 NNE 7 11 4 6 1026.7 1026.7 0.0
25/01:30pm 18.8 17.3 6.6 45 6.1 NE 4 11 2 6 1027.0 1027.0 0.0
25/01:00pm 18.5 16.5 7.3 48 5.7 NW 7 13 4 7 1027.5 1027.6 0.0
25/12:30pm 18.4 15.7 7.2 48 5.6 NNW 11 15 6 8 1027.9 1028.0 0.0
25/12:00pm 17.8 14.8 7.5 51 5.2 N 13 17 7 9 1028.3 1028.4 0.0
25/11:30am 16.9 15.1 8.1 56 4.4 N 7 15 4 8 1029.0 1029.1 0.0

Other Formats:

Comma delimited format used in spreadsheet applications
http://www.bom.gov.au/fwo/IDS60801/IDS60801.95815.axf

JavaScript Object Notation format (JSON) in row-major order
http://www.bom.gov.au/fwo/IDS60801/IDS60801.95815.json